Flight Track Log - Related Links

Times and Time Zones

All times are in EDT time to prevent confusion due to time zone crossing. See the EJA808 flight status page for this flight to view local times or setup timezone preferences in your user account.

Time Position Orientation Groundspeed Altitude Reporting Facility
EDT Latitude Longitude Course Direction KTS MPH feet Rate Location/Type
Mon 10:38:37 AM 42.6967 -73.8017 101° East 228 262 3,800  Level Boston Center
Mon 10:40:00 AM 42.7124 -73.6565 82° East  Level FlightAware Approximate
Mon 10:43:38 AM 42.6261 -73.3289 99° East 295 339 11,000  Level Boston Center
Mon 10:44:38 AM 42.6189 -73.2019 94° East 300 345 11,000  Level Boston Center
Mon 10:46:00 AM 42.6410 -73.0585 78° East  Level FlightAware Approximate
Mon 10:46:38 AM 42.6075 -72.9703 78° East 318 366 11,000  Level Boston Center
Mon 10:47:00 AM 42.6397 -72.9080 99° East  Level FlightAware Approximate
Mon 10:48:00 AM 42.6277 -72.8020 99° East  Level FlightAware Approximate
Mon 10:48:00 AM 42.6014 -72.8240 93° East  Level FlightAware Approximate
Mon 10:48:38 AM 42.5897 -72.7278 93° East 330 380 11,000  Level Boston Center
Mon 10:49:00 AM 42.6156 -72.6960 99° East  Level FlightAware Approximate
Mon 10:50:00 AM 42.5868 -72.5813 91° East  Level FlightAware Approximate
Mon 10:50:38 AM 42.5756 -72.4767 91° East 325 374 10,900  Level Boston Center
Mon 10:51:38 AM 42.5672 -72.3556 95° East 325 374 11,000 -522 Climbing Boston Center
Mon 10:53:00 AM 42.5566 -72.2081 95° East  Level FlightAware Approximate
Mon 10:55:14 AM 42.5333 -71.9500 90° East 277 319 8,500  Level KA90
Mon 10:56:22 AM 42.5333 -71.8333 90° East 264 304 6,200 -1,786 Descending KA90
Mon 10:56:38 AM 42.5236 -71.8092 119° Southeast 273 314 6,000 -756 Descending Boston Center
Mon 10:58:21 AM 42.5167 -71.6500 93° East 255 293 4,700 -722 Descending KA90
Mon 11:00:00 AM 42.4833 -71.4779 90° East  Level FlightAware Approximate
Mon 11:00:14 AM 42.5167 -71.4667 90° East 260 299 3,400  Level KA90
Mon 11:02:38 AM 42.4719 -71.3142 112° Southeast 167 192 500 809 Descending Boston Center
Mon 11:09:00 AM 42.4699 -71.2890 109° East  Level Estimated
Mon 11:09:38 AM 42.4022 -71.0483 109° East 167 192 11,000  Level Boston Center
Mon 11:11:00 AM 42.4318 -71.1523 290° West  Level FlightAware Approximate
Mon 11:18:00 AM 42.4667 -71.2833 290° West  Level FlightAware Approximate
Mon 11:19:00 AM 42.4699 -71.2890 290° West  Level Estimated

Login

Don't have an account? Register now (free) for customized features, flight alerts, and more!